Time;durP1;ratioP1;P1;durP2;ratioP2;P2;SDS_P1;SDS_P2;PMS_P1;PMS_P2;Temp;Humidity;BMP_temperature;BMP_pressure;BME280_temperature;BME280_humidity;BME280_pressure;Samples;Min_cycle;Max_cycle;Signal;HPM_P1;HPM_P2
2023/01/25 07:35:42;;;;;;;7.87;5.20;;;2.10;99.90;4.60;103249.00;;;;5047792;28;20260;-68
2023/01/25 07:38:08;;;;;;;5.60;5.20;;;2.40;99.90;4.30;103258.00;;;;5058250;28;20234;-69
2023/01/25 07:40:34;;;;;;;4.37;4.10;;;2.30;99.90;4.10;103266.00;;;;5054665;28;20186;-68
2023/01/25 07:43:00;;;;;;;13.77;11.27;;;2.20;99.90;5.30;103285.00;;;;5046571;28;20560;-68
2023/01/25 07:45:30;;;;;;;7.10;6.47;;;2.60;99.90;5.10;103289.00;;;;5028724;28;20198;-68
2023/01/25 07:48:00;;;;;;;3.67;3.57;;;2.80;99.90;5.10;103291.00;;;;5058265;28;20201;-68
2023/01/25 07:50:27;;;;;;;2.87;2.70;;;2.90;99.90;5.40;103290.00;;;;5061425;28;20194;-68
2023/01/25 07:52:53;;;;;;;4.17;3.00;;;2.80;99.90;4.40;103288.00;;;;5064033;28;20251;-68
2023/01/25 07:55:19;;;;;;;0.40;0.40;;;2.70;99.90;4.90;103252.00;;;;5070025;28;20193;-68
2023/01/25 07:57:46;;;;;;;1.83;1.73;;;2.60;99.90;5.40;103298.00;;;;5045959;28;20622;-68
2023/01/25 08:00:13;;;;;;;6.87;6.53;;;2.90;99.90;5.80;103292.00;;;;5040660;28;20537;-68
2023/01/25 08:02:44;;;;;;;7.47;4.53;;;3.10;99.90;5.90;103293.00;;;;5033573;28;20208;-68
2023/01/25 08:05:10;;;;;;;10.77;8.20;;;3.30;99.90;5.50;103280.00;;;;5051179;28;20193;-69
2023/01/25 08:07:39;;;;;;;5.43;5.03;;;3.10;99.90;4.60;103283.00;;;;5042650;28;20672;-68
2023/01/25 08:10:11;;;;;;;7.57;5.63;;;3.00;99.90;3.80;103259.00;;;;5043809;28;20324;-69
2023/01/25 08:12:45;;;;;;;4.73;2.73;;;2.30;99.90;3.70;103259.00;;;;5052344;28;20229;-69
2023/01/25 08:15:14;;;;;;;2.17;2.07;;;2.00;99.90;4.70;103265.00;;;;5091141;28;20224;-69
2023/01/25 08:17:40;;;;;;;0.80;0.80;;;2.20;99.90;5.20;103274.00;;;;5037506;28;20723;-69
2023/01/25 08:20:08;;;;;;;0.40;0.40;;;2.60;99.90;5.50;103274.00;;;;5061336;28;20212;-70
2023/01/25 08:22:37;;;;;;;0.83;0.83;;;2.80;99.90;5.50;103269.00;;;;5037064;28;20209;-70
2023/01/25 08:25:04;;;;;;;1.07;1.07;;;2.90;99.90;5.70;103272.00;;;;5083189;28;20224;-70
2023/01/25 08:27:30;;;;;;;2.33;2.13;;;3.10;99.90;5.20;103260.00;;;;5055217;28;20205;-70
2023/01/25 08:30:01;;;;;;;4.33;3.63;;;2.90;99.90;5.90;103262.00;;;;5051359;28;20202;-70
2023/01/25 08:32:35;;;;;;;3.10;2.83;;;3.20;99.90;5.50;103236.00;;;;5056727;28;20205;-70
2023/01/25 08:35:00;;;;;;;6.37;2.83;;;3.20;99.90;5.80;103264.00;;;;5048175;28;20191;-70
2023/01/25 08:37:29;;;;;;;9.03;6.13;;;3.30;99.90;5.70;103274.00;;;;5056727;28;20197;-70
2023/01/25 08:40:02;;;;;;;4.00;2.47;;;3.20;99.90;4.50;103259.00;;;;5047223;28;20221;-69
2023/01/25 08:42:42;;;;;;;8.60;5.40;;;2.90;99.90;3.00;103251.00;;;;5067278;28;20185;-69
2023/01/25 08:45:19;;;;;;;15.43;7.17;;;2.10;99.90;2.80;103241.00;;;;5052931;28;20197;-69
2023/01/25 08:47:56;;;;;;;3.90;3.60;;;1.70;99.90;2.70;103232.00;;;;5035907;28;20557;-69
2023/01/25 08:50:33;;;;;;;3.87;3.57;;;1.40;99.90;2.30;103191.00;;;;5065502;28;20208;-70
2023/01/25 08:52:59;;;;;;;18.60;13.13;;;1.20;99.90;3.40;103194.00;;;;5050359;28;20220;-70
2023/01/25 08:55:25;;;;;;;9.37;8.30;;;1.40;99.90;2.70;103242.00;;;;5050504;28;20559;-70
2023/01/25 08:58:09;;;;;;;2.40;1.80;;;1.40;99.90;2.90;103252.00;;;;5039823;28;20671;-70
2023/01/25 09:00:38;;;;;;;7.57;7.10;;;1.30;99.90;3.00;103201.00;;;;5043404;28;20204;-70
2023/01/25 09:03:10;;;;;;;1.90;1.90;;;1.40;99.90;3.70;103243.00;;;;5069209;28;20201;-70
2023/01/25 09:05:51;;;;;;;0.33;0.33;;;1.60;99.90;3.20;103246.00;;;;5046989;28;20218;-70
2023/01/25 09:08:17;;;;;;;0.47;0.47;;;1.50;99.90;4.50;103216.00;;;;5080553;28;20203;-70
2023/01/25 09:10:43;;;;;;;5.90;5.33;;;1.90;99.90;3.50;103263.00;;;;5069549;28;20182;-69
2023/01/25 09:13:13;;;;;;;7.83;7.07;;;1.80;99.90;4.20;103250.00;;;;5074070;28;20684;-70
2023/01/25 09:15:42;;;;;;;0.50;0.50;;;1.90;99.90;4.70;103236.00;;;;5045029;28;20291;-70
2023/01/25 09:18:08;;;;;;;12.47;11.37;;;2.30;99.90;3.20;103264.00;;;;5028415;28;20190;-70
2023/01/25 09:21:03;;;;;;;0.30;0.30;;;2.00;99.90;4.10;103260.00;;;;5043145;28;20196;-70
2023/01/25 09:23:47;;;;;;;1.57;1.47;;;1.90;99.90;3.60;103221.00;;;;5058349;28;20262;-75
2023/01/25 09:26:23;;;;;;;0.87;0.87;;;1.80;99.90;4.90;103241.00;;;;5088085;28;20276;-70
2023/01/25 09:28:52;;;;;;;3.33;3.03;;;2.20;99.90;5.20;103279.00;;;;5054654;28;20196;-70
2023/01/25 09:31:21;;;;;;;5.57;3.67;;;2.50;99.90;5.70;103244.00;;;;5044039;28;20193;-70
2023/01/25 09:33:53;;;;;;;2.10;1.77;;;3.00;99.90;4.80;103269.00;;;;5035348;28;20218;-70
2023/01/25 09:36:19;;;;;;;3.03;2.00;;;2.90;99.90;5.80;103267.00;;;;5044051;28;20201;-70
2023/01/25 09:38:45;;;;;;;10.40;2.30;;;3.10;99.90;5.40;103268.00;;;;5034494;28;20205;-70
2023/01/25 09:41:56;;;;;;;5.00;3.80;;;3.20;99.90;5.40;103266.00;;;;5035242;28;20191;-70
2023/01/25 09:45:07;;;;;;;5.13;4.17;;;3.10;99.90;4.00;103230.00;;;;5034348;28;20197;-70
2023/01/25 09:48:29;;;;;;;1.57;0.93;;;2.70;99.90;4.30;103231.00;;;;5045366;28;20284;-70
2023/01/25 09:51:24;;;;;;;0.30;0.30;;;2.40;99.90;5.40;103217.00;;;;5033583;28;20194;-69
2023/01/25 09:54:11;;;;;;;5.57;3.73;;;2.80;99.90;5.60;103235.00;;;;5018574;28;20201;-69
2023/01/25 09:56:47;;;;;;;3.20;2.97;;;3.10;99.90;4.50;103263.00;;;;5011396;28;20221;-70
2023/01/25 09:59:25;;;;;;;0.30;0.30;;;3.00;99.90;4.80;103258.00;;;;5019019;28;20360;-70
2023/01/25 10:02:17;;;;;;;3.90;3.40;;;2.60;99.90;4.90;103219.00;;;;5034238;28;20198;-70
2023/01/25 10:04:50;;;;;;;0.30;0.30;;;2.60;99.90;5.40;103240.00;;;;5036723;28;20201;-70
2023/01/25 10:08:09;;;;;;;7.10;6.47;;;2.90;99.90;5.70;103253.00;;;;5034552;28;20206;-70
2023/01/25 10:10:50;;;;;;;0.73;0.73;;;3.10;99.90;5.40;103240.00;;;;5003404;28;20210;-70
2023/01/25 10:13:47;;;;;;;1.90;1.03;;;3.00;99.90;5.70;103249.00;;;;4987714;28;20586;-70
2023/01/25 10:16:35;;;;;;;6.40;5.60;;;3.20;99.90;3.30;103240.00;;;;5010455;28;20266;-69
2023/01/25 10:19:33;;;;;;;0.30;0.30;;;2.50;99.90;4.00;103224.00;;;;5014534;28;20219;-69
2023/01/25 10:33:38;;;;;;;0.20;0.20;;;0.90;99.90;2.80;103133.00;;;;5069999;27;20567;-68
2023/01/25 10:36:14;;;;;;;0.33;0.33;;;1.20;99.90;3.90;103158.00;;;;5065376;28;20233;-68
2023/01/25 10:38:58;;;;;;;3.33;2.63;;;1.60;99.90;5.10;103178.00;;;;5061722;28;20197;-68
2023/01/25 10:41:59;;;;;;;3.07;2.87;;;2.30;99.90;4.80;103169.00;;;;5067986;28;20553;-68
2023/01/25 10:44:38;;;;;;;14.20;7.63;;;2.40;99.90;5.40;103196.00;;;;5039631;28;20179;-68
2023/01/25 10:47:30;;;;;;;0.70;0.70;;;2.80;99.90;5.30;103188.00;;;;5048214;28;20174;-68
2023/01/25 10:50:02;;;;;;;0.30;0.30;;;2.90;99.90;5.80;103194.00;;;;5046721;28;20208;-68
2023/01/25 10:52:37;;;;;;;0.30;0.30;;;3.10;99.90;5.70;103179.00;;;;5039960;28;20233;-69
2023/01/25 10:55:18;;;;;;;0.70;0.70;;;3.20;99.90;4.70;103182.00;;;;5035386;28;20197;-68
2023/01/25 10:58:05;;;;;;;9.63;8.50;;;2.90;99.90;5.60;103129.00;;;;5040241;28;20228;-69
2023/01/25 11:00:40;;;;;;;2.53;2.43;;;3.00;99.90;4.90;103164.00;;;;5035762;28;20273;-69
2023/01/25 11:03:18;;;;;;;1.80;0.93;;;3.00;99.90;4.80;103163.00;;;;5053738;28;20327;-69
2023/01/25 11:05:56;;;;;;;0.67;0.67;;;2.90;99.90;5.60;103155.00;;;;5079214;28;20197;-69
2023/01/25 11:08:44;;;;;;;1.70;1.60;;;3.00;99.90;4.90;103151.00;;;;5031459;28;20424;-69
2023/01/25 11:11:35;;;;;;;6.50;6.00;;;3.10;99.90;5.30;103130.00;;;;5029668;28;20190;-69
2023/01/25 11:14:41;;;;;;;4.87;4.57;;;3.20;99.90;5.00;103126.00;;;;5038856;28;20187;-69
2023/01/25 11:17:47;;;;;;;0.30;0.30;;;3.10;99.90;6.10;103103.00;;;;5050289;28;20186;-70
2023/01/25 11:21:13;;;;;;;9.93;7.97;;;3.40;99.90;4.90;103121.00;;;;5047521;28;20200;-70
2023/01/25 11:24:04;;;;;;;7.87;7.43;;;3.00;99.90;3.20;103096.00;;;;5058762;28;20199;-69
2023/01/25 11:27:34;;;;;;;2.27;2.20;;;2.20;99.90;4.40;103094.00;;;;5044133;28;20190;-69
2023/01/25 11:34:44;;;;;;;0.50;0.50;;;2.00;99.90;4.50;103087.00;;;;5046404;28;20212;-75
2023/01/25 11:37:53;;;;;;;6.60;3.40;;;2.20;99.90;4.90;103085.00;;;;5038642;28;20195;-69
2023/01/25 11:40:38;;;;;;;2.23;1.43;;;2.40;99.90;5.20;103080.00;;;;5047662;28;20190;-69
2023/01/25 11:43:45;;;;;;;4.47;4.33;;;2.70;99.90;4.20;103030.00;;;;5041590;28;20286;-69
2023/01/25 11:46:59;;;;;;;2.50;2.30;;;2.60;99.90;4.00;103039.00;;;;5039740;28;20693;-69
2023/01/25 11:49:57;;;;;;;3.80;3.07;;;2.00;99.90;4.60;103035.00;;;;4998019;28;20190;-69
2023/01/25 11:53:10;;;;;;;3.13;2.97;;;2.30;99.90;5.40;103051.00;;;;5032319;28;20615;-69
2023/01/25 11:56:47;;;;;;;2.83;2.03;;;2.70;99.90;4.70;103050.00;;;;5030427;28;20213;-67
2023/01/25 12:00:13;;;;;;;3.07;2.97;;;2.70;99.90;3.00;102951.00;;;;5030963;28;20198;-67
2023/01/25 12:03:43;;;;;;;21.00;16.03;;;2.20;99.90;2.60;103000.00;;;;5007748;28;20212;-67
2023/01/25 12:06:18;;;;;;;6.63;5.97;;;1.50;99.90;2.70;102991.00;;;;5002693;28;20229;-66
2023/01/25 12:08:57;;;;;;;7.10;5.93;;;1.30;99.90;3.90;102993.00;;;;5017652;28;20197;-67
2023/01/25 12:11:41;;;;;;;0.67;0.67;;;1.80;99.90;4.60;102999.00;;;;5034105;28;20281;-67
2023/01/25 12:14:46;;;;;;;4.53;2.00;;;2.00;99.90;5.00;103002.00;;;;5035062;28;20642;-67
2023/01/25 12:18:06;;;;;;;0.83;0.77;;;2.40;99.90;4.40;102954.00;;;;5035121;28;20189;-66
2023/01/25 12:20:56;;;;;;;0.30;0.30;;;2.50;99.90;4.70;102977.00;;;;5034590;28;20191;-67
2023/01/25 12:23:59;;;;;;;19.30;8.17;;;2.30;99.90;3.40;102963.00;;;;5034831;28;20245;-66
2023/01/25 12:27:10;;;;;;;11.80;8.30;;;2.10;99.90;3.40;102951.00;;;;5034261;28;20716;-66
2023/01/25 12:29:56;;;;;;;11.63;6.23;;;1.90;99.90;3.40;102939.00;;;;5032240;28;20221;-73
2023/01/25 12:32:57;;;;;;;33.63;13.97;;;1.80;99.90;3.70;102941.00;;;;5033261;28;20230;-67
2023/01/25 12:35:39;;;;;;;22.40;9.73;;;1.80;99.90;2.40;102884.00;;;;5005008;28;20339;-67
2023/01/25 12:38:35;;;;;;;5.50;4.20;;;1.40;99.90;2.50;102913.00;;;;5031755;28;20179;-67
2023/01/25 12:41:28;;;;;;;12.53;8.10;;;1.20;99.90;3.80;102916.00;;;;5039140;28;20538;-67
2023/01/25 12:44:30;;;;;;;28.07;16.13;;;1.50;99.90;3.40;102879.00;;;;5019908;28;20256;-67
2023/01/25 12:47:15;;;;;;;0.80;0.80;;;1.90;99.90;4.40;102924.00;;;;5033915;28;20656;-67
2023/01/25 12:49:51;;;;;;;11.13;8.27;;;2.10;99.90;3.20;102910.00;;;;5021244;28;20643;-67
2023/01/25 12:52:53;;;;;;;0.93;0.93;;;1.90;99.90;3.80;102906.00;;;;5032026;28;20683;-67
2023/01/25 12:55:24;;;;;;;0.73;0.73;;;1.80;99.90;4.30;102889.00;;;;5017208;28;20619;-67
2023/01/25 12:58:14;;;;;;;2.97;2.87;;;1.80;99.90;4.30;102895.00;;;;5031377;28;20187;-68
2023/01/25 13:01:09;;;;;;;14.57;7.23;;;2.20;99.90;3.60;102879.00;;;;5032822;28;20274;-71
2023/01/25 13:04:35;;;;;;;1.80;1.80;;;1.90;99.90;4.30;102883.00;;;;5035482;28;20195;-76
2023/01/25 13:07:53;;;;;;;1.30;1.27;;;2.00;99.90;4.10;102889.00;;;;5031773;28;20229;-73
2023/01/25 13:10:45;;;;;;;0.33;0.33;;;2.20;99.90;3.50;102838.00;;;;5032025;28;20205;-75
2023/01/25 13:13:49;;;;;;;2.77;2.67;;;2.00;99.90;3.20;102855.00;;;;5014570;28;20195;-76
2023/01/25 13:16:42;;;;;;;1.00;0.97;;;1.80;99.90;2.80;102835.00;;;;5024139;28;20198;-78
2023/01/25 13:19:28;;;;;;;0.70;0.70;;;1.50;99.90;3.40;102845.00;;;;5013231;28;20187;-77
2023/01/25 13:22:11;;;;;;;7.80;5.37;;;1.60;99.90;4.10;102828.00;;;;5030814;28;20310;-77
2023/01/25 13:25:10;;;;;;;5.50;5.10;;;1.90;99.90;4.10;102838.00;;;;5030612;28;20280;-74
2023/01/25 13:27:38;;;;;;;19.80;12.93;;;2.10;99.90;3.40;102820.00;;;;5055385;28;20569;-74
2023/01/25 13:30:29;;;;;;;17.93;7.17;;;1.80;99.90;2.90;102809.00;;;;5039746;28;20646;-74
2023/01/25 13:33:06;;;;;;;11.37;2.57;;;1.60;99.90;3.10;102817.00;;;;5031887;28;21149;-74
2023/01/25 13:35:47;;;;;;;3.03;2.50;;;1.50;99.90;3.40;102822.00;;;;5030586;28;20182;-75
2023/01/25 13:38:34;;;;;;;6.60;4.73;;;1.60;99.90;3.50;102811.00;;;;5029564;28;20182;-74
2023/01/25 13:41:10;;;;;;;14.20;6.43;;;1.50;99.90;3.70;102827.00;;;;5035096;28;20534;-74
2023/01/25 13:43:44;;;;;;;4.30;4.00;;;1.80;99.90;4.00;102827.00;;;;5031804;28;20628;-74
2023/01/25 13:46:48;;;;;;;8.70;6.20;;;1.80;99.90;3.80;102806.00;;;;5019687;28;20190;-74
2023/01/25 13:49:47;;;;;;;2.93;2.80;;;2.00;99.90;3.80;102827.00;;;;5031292;28;20193;-75
2023/01/25 13:52:23;;;;;;;3.77;3.57;;;2.10;99.90;3.10;102814.00;;;;5026901;28;20261;-74
2023/01/25 13:55:18;;;;;;;1.43;1.43;;;1.70;99.90;4.30;102813.00;;;;5032173;28;20182;-74
2023/01/25 13:58:10;;;;;;;3.10;2.87;;;1.70;99.90;5.20;102828.00;;;;5021423;28;20581;-74
2023/01/25 14:00:36;;;;;;;1.17;1.17;;;2.40;99.90;4.30;102836.00;;;;5020887;28;20642;-74
2023/01/25 14:03:11;;;;;;;22.50;11.93;;;2.40;99.90;5.50;102845.00;;;;5031858;28;20696;-73
2023/01/25 14:06:06;;;;;;;8.33;7.47;;;2.80;99.90;2.30;102817.00;;;;5053047;28;20233;-75
2023/01/25 14:08:58;;;;;;;5.83;5.30;;;1.90;99.90;2.30;102801.00;;;;5027933;28;20222;-74
2023/01/25 14:12:58;;;;;;;1.03;1.03;;;1.40;99.90;3.00;102800.00;;;;5031820;28;20653;-72
2023/01/25 14:15:33;;;;;;;3.63;3.33;;;1.40;99.90;1.80;102769.00;;;;5045351;28;20197;-73
2023/01/25 14:18:49;;;;;;;1.73;1.73;;;1.00;99.90;2.60;102768.00;;;;5014302;28;20201;-73
2023/01/25 14:22:02;;;;;;;7.50;3.77;;;0.90;99.90;2.50;102784.00;;;;5013766;28;20199;-71
2023/01/25 14:25:29;;;;;;;2.47;2.27;;;1.20;99.90;2.90;102798.00;;;;5031512;28;20627;-71
2023/01/25 14:28:24;;;;;;;2.10;2.03;;;1.40;99.90;4.10;102808.00;;;;5024631;28;20204;-71
2023/01/25 14:31:00;;;;;;;0.30;0.30;;;1.80;99.90;4.00;102793.00;;;;5015461;28;20646;-71
2023/01/25 14:34:02;;;;;;;1.07;1.07;;;2.00;99.90;4.40;102814.00;;;;5031576;28;20214;-71
2023/01/25 14:37:16;;;;;;;4.67;2.87;;;2.00;99.90;5.00;102811.00;;;;5030705;28;20189;-71
2023/01/25 14:40:25;;;;;;;2.50;2.40;;;2.30;99.90;3.20;102777.00;;;;5013731;28;20179;-71
2023/01/25 14:43:29;;;;;;;3.73;3.40;;;2.10;99.90;3.20;102796.00;;;;5024492;28;20183;-71
2023/01/25 14:47:12;;;;;;;8.60;4.07;;;1.80;99.90;4.00;102798.00;;;;5030609;28;20282;-71
2023/01/25 14:50:19;;;;;;;1.33;1.23;;;1.60;99.90;3.60;102798.00;;;;4989707;28;20722;-70
2023/01/25 14:53:13;;;;;;;0.87;0.87;;;1.80;99.90;3.80;102798.00;;;;4989860;28;20227;-70
2023/01/25 14:55:50;;;;;;;14.17;9.77;;;1.70;99.90;3.30;102784.00;;;;4985692;28;20192;-71
2023/01/25 14:58:27;;;;;;;5.80;5.23;;;1.50;99.90;2.80;102785.00;;;;5005074;28;20206;-70
2023/01/25 15:01:24;;;;;;;25.00;13.23;;;1.50;99.90;2.80;102767.00;;;;5027290;28;20709;-70
2023/01/25 15:04:08;;;;;;;12.50;8.23;;;1.20;99.90;3.30;102792.00;;;;5022911;28;20195;-72
2023/01/25 15:06:52;;;;;;;20.00;14.60;;;1.70;99.90;3.30;102778.00;;;;5031384;28;20297;-69
2023/01/25 15:09:59;;;;;;;8.27;4.93;;;1.50;99.90;3.30;102787.00;;;;5018225;28;20191;-70
2023/01/25 15:13:13;;;;;;;22.97;14.60;;;1.50;99.90;2.40;102780.00;;;;5031203;28;20210;-70
2023/01/25 15:16:40;;;;;;;24.63;15.53;;;1.50;99.90;2.30;102775.00;;;;5031066;28;20206;-70
2023/01/25 15:19:27;;;;;;;4.33;4.03;;;1.20;99.90;2.90;102769.00;;;;5029039;28;20576;-70
2023/01/25 15:22:28;;;;;;;0.37;0.37;;;1.20;99.90;4.20;102752.00;;;;5034183;28;20277;-70
2023/01/25 15:25:12;;;;;;;13.83;7.57;;;1.60;99.90;3.60;102765.00;;;;5018541;28;20787;-70
2023/01/25 15:30:28;;;;;;;5.73;5.27;;;1.60;99.90;2.80;102773.00;;;;5026985;28;20588;-70
2023/01/25 15:32:58;;;;;;;17.97;9.57;;;1.30;99.90;2.10;102752.00;;;;5034530;28;20257;-70
2023/01/25 15:35:24;;;;;;;3.57;3.27;;;1.00;99.90;3.50;102760.00;;;;5034445;28;20191;-70
2023/01/25 15:37:59;;;;;;;25.13;11.17;;;1.30;99.90;3.10;102780.00;;;;5034453;28;20197;-70
2023/01/25 15:40:30;;;;;;;3.47;3.37;;;1.60;99.90;3.80;102779.00;;;;5050594;28;20178;-70
2023/01/25 15:43:35;;;;;;;2.77;2.57;;;1.70;99.90;4.60;102793.00;;;;5034625;28;20198;-70
2023/01/25 15:46:24;;;;;;;32.23;18.70;;;2.00;99.90;3.00;102782.00;;;;5032879;28;20175;-70
2023/01/25 15:49:38;;;;;;;2.93;2.50;;;1.60;99.90;3.60;102780.00;;;;5014789;28;20282;-70
2023/01/25 15:53:07;;;;;;;20.23;12.30;;;1.60;99.90;1.80;102751.00;;;;5059499;28;20662;-70
2023/01/25 16:00:20;;;;;;;4.40;4.10;;;1.00;99.90;2.90;102745.00;;;;5033228;28;20561;-70
2023/01/25 16:03:40;;;;;;;59.17;26.63;;;1.00;99.90;2.70;102748.00;;;;5019399;28;20725;-70
2023/01/25 16:06:44;;;;;;;27.00;15.13;;;1.20;99.90;3.50;102758.00;;;;5030961;28;20237;-70
2023/01/25 16:10:21;;;;;;;6.00;5.23;;;1.50;99.90;2.80;102705.00;;;;5027848;28;20284;-70
2023/01/25 16:13:41;;;;;;;14.73;12.70;;;1.40;99.90;1.80;102688.00;;;;5018212;28;20218;-70
2023/01/25 16:17:22;;;;;;;12.80;11.60;;;1.00;99.90;2.50;102741.00;;;;5030441;28;20187;-70
2023/01/25 16:20:43;;;;;;;28.93;15.10;;;0.90;99.90;2.80;102749.00;;;;5033640;28;20186;-70
2023/01/25 16:23:52;;;;;;;25.17;12.47;;;1.00;99.90;3.40;102747.00;;;;5010042;28;20652;-70
2023/01/25 16:27:39;;;;;;;13.57;12.33;;;1.30;99.90;3.30;102764.00;;;;5022877;28;20285;-70
2023/01/25 16:31:05;;;;;;;1.40;1.37;;;1.60;99.90;2.90;102748.00;;;;5019265;28;20608;-70
2023/01/25 16:34:24;;;;;;;4.00;3.77;;;1.30;99.90;2.80;102732.00;;;;5024898;28;20230;-70
2023/01/25 16:38:13;;;;;;;24.50;7.23;;;1.30;99.90;2.70;102748.00;;;;5028557;28;20182;-70
2023/01/25 16:41:37;;;;;;;11.23;8.17;;;1.30;99.90;1.90;102728.00;;;;5045514;28;20206;-70
2023/01/25 16:45:06;;;;;;;1.80;1.70;;;0.90;99.90;2.00;102685.00;;;;5023418;28;20191;-70
2023/01/25 16:48:10;;;;;;;9.90;8.57;;;0.70;99.90;3.40;102719.00;;;;5026736;28;20534;-70
2023/01/25 16:51:25;;;;;;;3.93;1.47;;;1.30;99.90;3.00;102729.00;;;;5026817;28;20320;-70
2023/01/25 16:54:30;;;;;;;7.83;5.90;;;1.40;99.90;2.40;102719.00;;;;5035301;28;20198;-70
2023/01/25 16:57:42;;;;;;;4.03;3.57;;;1.20;99.90;3.60;102722.00;;;;5033236;28;20182;-70
2023/01/25 17:01:11;;;;;;;10.00;3.03;;;1.40;99.90;2.90;102694.00;;;;5034048;28;20647;-70
2023/01/25 17:07:11;;;;;;;6.80;5.80;;;1.60;99.90;3.90;102709.00;;;;5025297;28;20560;-71
2023/01/25 17:10:14;;;;;;;5.10;4.80;;;1.60;99.90;4.00;102670.00;;;;5010922;28;20210;-70
2023/01/25 17:13:36;;;;;;;3.43;1.47;;;1.90;99.90;2.80;102674.00;;;;5031843;28;20293;-70
2023/01/25 17:16:24;;;;;;;2.60;2.43;;;1.40;99.90;2.90;102674.00;;;;5027315;28;20677;-70
2023/01/25 17:19:03;;;;;;;0.40;0.40;;;1.20;99.90;2.40;102669.00;;;;5030335;28;20194;-70
2023/01/25 17:22:09;;;;;;;1.00;1.00;;;1.00;99.90;2.60;102614.00;;;;5023025;28;20240;-70
2023/01/25 17:25:17;;;;;;;6.60;6.10;;;1.00;99.90;2.70;102623.00;;;;5058188;28;20269;-70
2023/01/25 17:28:32;;;;;;;0.60;0.60;;;1.10;99.90;3.80;102622.00;;;;5023650;28;20190;-70
2023/01/25 17:31:34;;;;;;;1.20;1.17;;;1.50;99.90;3.40;102606.00;;;;5032364;28;20548;-70
2023/01/25 17:34:39;;;;;;;20.43;8.93;;;1.40;99.90;2.80;102635.00;;;;5022771;28;20186;-70
2023/01/25 17:37:32;;;;;;;5.07;3.40;;;1.40;99.90;2.10;102625.00;;;;5030950;28;20178;-70
2023/01/25 17:40:25;;;;;;;5.57;3.90;;;1.10;99.90;2.80;102606.00;;;;5032099;28;20545;-70
2023/01/25 17:43:31;;;;;;;6.20;5.40;;;1.00;99.90;2.80;102586.00;;;;5030523;28;20182;-70
2023/01/25 17:46:24;;;;;;;12.07;9.77;;;1.10;99.90;2.60;102586.00;;;;5031537;28;20206;-70
2023/01/25 17:49:50;;;;;;;10.63;8.03;;;1.10;99.90;2.90;102605.00;;;;5032330;28;20194;-70
2023/01/25 17:52:19;;;;;;;15.20;6.87;;;1.20;99.90;2.70;102545.00;;;;5045661;28;20611;-70
2023/01/25 17:54:44;;;;;;;6.33;5.87;;;1.20;99.90;3.20;102533.00;;;;5031560;28;20630;-70
2023/01/25 17:57:23;;;;;;;9.63;7.63;;;1.30;99.90;2.70;102566.00;;;;5033150;28;20198;-70
2023/01/25 18:00:10;;;;;;;18.87;6.17;;;1.20;99.90;2.30;102557.00;;;;5024832;28;20195;-70
2023/01/25 18:02:58;;;;;;;10.63;5.27;;;1.10;99.90;2.30;102541.00;;;;5028945;28;20202;-70
2023/01/25 18:05:44;;;;;;;3.43;3.20;;;0.90;99.90;2.20;102520.00;;;;5025669;28;20202;-70
2023/01/25 18:09:05;;;;;;;5.57;3.77;;;0.80;99.90;2.50;102525.00;;;;5026121;28;20183;-70
2023/01/25 18:11:38;;;;;;;21.40;14.03;;;1.00;99.90;1.90;102512.00;;;;5060358;28;20206;-70
2023/01/25 18:15:02;;;;;;;15.87;9.53;;;0.80;99.90;2.80;102517.00;;;;5047561;28;20236;-70
2023/01/25 18:17:51;;;;;;;7.20;3.67;;;0.90;99.90;3.00;102509.00;;;;5023692;28;20625;-69
2023/01/25 18:20:19;;;;;;;6.77;4.00;;;1.10;99.90;2.60;102514.00;;;;5012692;28;20446;-70
2023/01/25 18:23:33;;;;;;;4.33;4.03;;;1.10;99.90;2.20;102498.00;;;;5031968;28;20186;-70
2023/01/25 18:26:45;;;;;;;20.37;9.90;;;1.00;99.90;1.70;102491.00;;;;5043713;28;20198;-70
2023/01/25 18:29:43;;;;;;;6.63;5.30;;;0.70;99.90;1.90;102493.00;;;;5043392;28;20277;-70
2023/01/25 18:32:55;;;;;;;13.27;8.37;;;0.70;99.90;1.60;102473.00;;;;5027852;28;20237;-70
2023/01/25 18:35:47;;;;;;;5.03;4.67;;;0.60;99.90;1.70;102431.00;;;;5015030;28;20245;-69
2023/01/25 18:38:54;;;;;;;2.67;2.03;;;0.60;99.90;2.30;102489.00;;;;5030358;28;20185;-70
2023/01/25 18:42:00;;;;;;;1.50;1.47;;;0.70;99.90;2.20;102496.00;;;;5026215;28;20257;-70
2023/01/25 18:44:38;;;;;;;0.50;0.50;;;0.80;99.90;2.80;102504.00;;;;5007034;28;20182;-70
2023/01/25 18:47:59;;;;;;;8.57;3.27;;;0.90;99.90;3.40;102460.00;;;;5030904;28;20178;-70
2023/01/25 18:53:24;;;;;;;9.97;5.50;;;1.20;99.90;3.10;102518.00;;;;5030546;28;20288;-70
2023/01/25 18:56:40;;;;;;;14.23;6.97;;;1.30;99.90;3.00;102500.00;;;;5034614;28;20638;-70
2023/01/25 18:59:11;;;;;;;7.03;6.27;;;1.30;99.90;2.90;102464.00;;;;5018217;28;20289;-70
2023/01/25 19:02:23;;;;;;;6.97;6.47;;;1.20;99.90;2.50;102460.00;;;;5035127;28;20202;-70
2023/01/25 19:04:49;;;;;;;3.93;3.07;;;1.10;99.90;3.10;102452.00;;;;5035481;28;20202;-70
2023/01/25 19:07:23;;;;;;;8.83;6.33;;;1.20;99.90;2.30;102436.00;;;;5035878;28;20229;-70
2023/01/25 19:10:52;;;;;;;10.73;7.83;;;1.10;99.90;3.20;102438.00;;;;5024216;28;20183;-70
2023/01/25 19:13:44;;;;;;;7.37;5.20;;;1.20;99.90;2.30;102431.00;;;;5035259;28;20261;-70
2023/01/25 19:17:27;;;;;;;6.37;3.43;;;1.10;99.90;2.60;102448.00;;;;5021801;28;20193;-70
2023/01/25 19:20:48;;;;;;;11.13;5.27;;;1.10;99.90;2.40;102434.00;;;;5036001;28;20182;-69
2023/01/25 19:27:09;;;;;;;9.33;7.93;;;1.10;99.90;2.30;102431.00;;;;5129595;22;20679;-77
2023/01/25 19:29:43;;;;;;;3.70;2.73;;;1.00;99.90;2.80;102433.00;;;;5040392;28;20197;-74
2023/01/25 19:32:43;;;;;;;2.10;1.63;;;1.10;99.90;3.30;102400.00;;;;5054300;28;20206;-76
2023/01/25 19:35:44;;;;;;;3.63;2.73;;;1.30;99.90;3.00;102425.00;;;;5056664;28;20662;-76
2023/01/25 19:39:08;;;;;;;16.47;4.10;;;1.20;99.90;2.30;102410.00;;;;5041147;28;20189;-76
2023/01/25 19:41:37;;;;;;;2.57;2.47;;;1.10;99.90;2.80;102354.00;;;;5053123;28;20244;-76
2023/01/25 19:44:04;;;;;;;0.50;0.50;;;1.10;99.90;3.90;102407.00;;;;5040254;28;20205;-76
2023/01/25 19:46:33;;;;;;;10.07;4.97;;;1.50;99.90;2.90;102406.00;;;;5054323;28;20269;-76
2023/01/25 19:49:01;;;;;;;2.83;2.70;;;1.40;99.90;2.90;102400.00;;;;5054890;28;20182;-77
2023/01/25 19:51:30;;;;;;;7.17;6.67;;;1.40;99.90;2.40;102381.00;;;;5053670;28;20284;-77
2023/01/25 19:53:58;;;;;;;1.23;1.23;;;1.20;99.90;2.60;102389.00;;;;5036961;28;20294;-77
2023/01/25 19:56:31;;;;;;;2.50;2.33;;;1.10;99.90;3.20;102394.00;;;;5037322;28;20723;-76
2023/01/25 19:59:05;;;;;;;4.47;2.40;;;1.30;99.90;3.20;102385.00;;;;5054378;28;20212;-76
2023/01/25 20:01:35;;;;;;;2.50;1.90;;;1.40;99.90;3.40;102393.00;;;;5036882;28;20178;-76
2023/01/25 20:04:04;;;;;;;2.50;1.77;;;1.40;99.90;2.80;102373.00;;;;5053668;28;20652;-76
2023/01/25 20:06:31;;;;;;;1.80;1.30;;;1.40;99.90;2.70;102374.00;;;;5053642;28;20193;-76
2023/01/25 20:09:00;;;;;;;3.33;3.13;;;1.20;99.90;2.90;102373.00;;;;5036988;28;20648;-76
2023/01/25 20:11:33;;;;;;;9.27;8.30;;;1.20;99.90;3.50;102383.00;;;;5053165;28;20270;-76
2023/01/25 20:14:08;;;;;;;3.53;3.23;;;1.50;99.90;2.70;102366.00;;;;5053269;28;20177;-76
2023/01/25 20:16:51;;;;;;;4.20;2.27;;;1.30;99.90;3.00;102334.00;;;;5069830;28;20182;-76
2023/01/25 20:19:18;;;;;;;5.33;5.03;;;1.20;99.90;3.20;102350.00;;;;5054261;28;20285;-77
2023/01/25 20:21:44;;;;;;;1.47;1.37;;;1.30;99.90;3.40;102354.00;;;;5036060;28;20693;-76
2023/01/25 20:24:10;;;;;;;4.17;3.27;;;1.50;99.90;2.50;102352.00;;;;5051491;28;20190;-76
2023/01/25 20:26:44;;;;;;;1.13;1.03;;;1.30;99.90;2.80;102352.00;;;;5037071;28;20660;-76
2023/01/25 20:29:11;;;;;;;1.60;1.57;;;1.40;99.90;2.90;102347.00;;;;5037302;28;20189;-76
2023/01/25 20:31:44;;;;;;;2.63;2.43;;;1.40;99.90;2.10;102339.00;;;;5054216;28;20208;-76
2023/01/25 20:34:17;;;;;;;7.03;4.03;;;1.20;99.90;2.50;102315.00;;;;5053408;28;20190;-75
2023/01/25 20:36:43;;;;;;;4.90;4.43;;;1.20;99.90;2.70;102323.00;;;;5053735;28;20551;-77
2023/01/25 20:39:18;;;;;;;15.93;3.93;;;1.20;99.90;3.10;102321.00;;;;5053270;28;20186;-76
2023/01/25 20:41:46;;;;;;;0.40;0.40;;;1.30;99.90;2.80;102326.00;;;;5037302;28;20181;-76
2023/01/25 20:44:15;;;;;;;10.03;3.20;;;1.20;99.90;2.30;102312.00;;;;5053669;28;20189;-76
2023/01/25 20:46:50;;;;;;;2.57;2.17;;;1.20;99.90;2.50;102289.00;;;;5053585;28;20178;-76
2023/01/25 20:49:23;;;;;;;3.30;3.00;;;1.10;99.90;2.90;102318.00;;;;5036359;28;20193;-76